Terminal Aerodrome Forecast
Issued by NWS

Home | Current Version | Previous Version | Text Only | Print | Product List | Glossary On
Versions: 1 2 3 4 5 6 7 8 9 10 11 12 13 14 15 16 17 18 19 20 21 22 23 24 25 26 27 28 29 30
000
FTUS46 KOTX 031135
TAFMWH
TAF
KMWH 031135Z 0312/0412 28005KT P6SM BKN040 BKN200
     FM031900 23011KT 5SM FU SCT150 BKN200
     FM032200 25013G20KT 6SM FU BKN150 OVC200
     FM040300 28013KT 6SM FU SCT120 BKN150
     FM040600 26005KT P6SM SKC=

USA.gov is the U.S. government's official web portal to all federal, state and local government web resources and services.